Terminal Aerodrome Forecast
Issued by NWS

Home | Current Version | Previous Version | Text Only | Print | Product List | Glossary On
Versions: 1 2 3 4 5 6 7 8 9 10 11 12 13 14 15 16
215
FTUS45 KRIW 261720
TAFRKS
TAF
KRKS 261720Z 2618/2718 23014KT P6SM FEW150
     FM270000 19010KT P6SM SCT050 BKN150 WS010/22025KT
     FM271400 27011KT P6SM SCT025 BKN040
     FM271700 27011KT 4SM -SN SCT015 OVC025=

USA.gov is the U.S. government's official web portal to all federal, state and local government web resources and services.